Portada
METAR-TAF:

METAR-TAF

Aeropuertos :

Iowa County Airport

Mineral Point, Wisconsin, Estados Unidos

latitud: 42-53-07N, longitud: 090-13-55W, altitud: 359 m

Observación

El informe se hizo hace 34 minutos, a las 07:35 UTC
Viento 5 kt del este
Temperatura 10°C
Humedad 71%
Presión 1026 hPa
Visibilidad: 16.1 km
Cielo despejado

METAR: KMRJ 310735Z AUTO 10005KT 10SM CLR 10/05 A3029 RMK AO2

Hora: 03:09 (08:09 UTC)


TAF: falta

Observaciones y pronósticos meteorológicos de más de 4000 aeropuertos (mensajes METAR y TAF).

Los puntos amarillos y rojos representan las estaciones disponibles.

Ponga el ratón en el punto deseado para ver el nombre de la estación.

Haga clic para ver las observaciones y los pronósticos meteorológicos.

Para cambiar el mapa : haga clic en los botones verdes con una cruz de color negro para hacer un zoom, en el botón verde con un guión para alejar o en las flechas verdes para mapas adyacentes.


METAR-TAF: